Time;durP1;ratioP1;P1;durP2;ratioP2;P2;SDS_P1;SDS_P2;PMS_P1;PMS_P2;Temp;Humidity;BMP_temperature;BMP_pressure;BME280_temperature;BME280_humidity;BME280_pressure;Samples;Min_cycle;Max_cycle;Signal;HPM_P1;HPM_P2
2021/07/20 00:02:46;;;;;;;21.77;14.32;;;;;;;18.87;69.15;100378.44;4976265;28;20102;-64
2021/07/20 00:05:34;;;;;;;19.67;14.93;;;;;;;18.88;69.31;100376.69;4975658;28;20050;-65
2021/07/20 00:08:23;;;;;;;23.52;15.18;;;;;;;18.84;69.39;100375.84;4975012;28;20173;-64
2021/07/20 00:11:10;;;;;;;27.25;18.10;;;;;;;18.84;69.28;100373.22;4975134;28;20117;-65
2021/07/20 00:13:54;;;;;;;26.23;17.23;;;;;;;18.82;69.35;100368.91;4975602;28;20060;-64
2021/07/20 00:16:38;;;;;;;29.67;18.55;;;;;;;18.79;69.30;100368.94;4975715;28;20105;-64
2021/07/20 00:19:25;;;;;;;29.30;19.45;;;;;;;18.78;69.44;100367.19;4975016;28;20418;-64
2021/07/20 00:22:11;;;;;;;27.38;19.00;;;;;;;18.76;69.18;100371.59;4976528;28;20134;-65
2021/07/20 00:24:55;;;;;;;24.88;17.67;;;;;;;18.75;69.25;100365.50;4976165;28;20597;-64
2021/07/20 00:27:43;;;;;;;27.88;17.30;;;;;;;18.74;69.20;100370.75;4976234;28;20518;-65
2021/07/20 00:30:29;;;;;;;21.55;15.75;;;;;;;18.72;69.10;100373.41;4975208;28;20069;-64
2021/07/20 00:33:14;;;;;;;27.73;17.35;;;;;;;18.71;69.46;100372.50;4975008;28;20529;-66
2021/07/20 00:36:01;;;;;;;24.60;16.95;;;;;;;18.69;69.29;100371.66;4975769;28;20078;-64
2021/07/20 00:38:52;;;;;;;24.25;16.30;;;;;;;18.68;69.37;100369.06;4975864;28;20050;-65
2021/07/20 00:41:39;;;;;;;25.33;16.33;;;;;;;18.66;69.23;100369.09;4974768;28;20057;-64
2021/07/20 00:44:32;;;;;;;28.45;17.42;;;;;;;18.65;69.28;100369.97;4975822;28;20082;-66
2021/07/20 00:47:17;;;;;;;23.17;16.90;;;;;;;18.64;69.33;100370.88;4975392;28;20079;-64
2021/07/20 00:50:04;;;;;;;24.45;16.20;;;;;;;18.63;69.48;100373.47;4974701;28;20046;-64
2021/07/20 00:52:52;;;;;;;24.23;16.27;;;;;;;18.62;69.26;100371.75;4974224;28;20066;-66
2021/07/20 00:55:41;;;;;;;24.38;17.50;;;;;;;18.61;69.41;100372.66;4975515;28;20592;-64
2021/07/20 00:58:30;;;;;;;24.50;16.48;;;;;;;18.59;69.34;100371.81;4974860;28;20089;-64
2021/07/20 01:01:15;;;;;;;22.50;15.77;;;;;;;18.57;69.31;100374.44;4973996;28;20077;-68
2021/07/20 01:03:59;;;;;;;25.52;16.17;;;;;;;18.56;69.36;100378.81;4975152;28;20062;-65
2021/07/20 01:06:51;;;;;;;23.73;16.77;;;;;;;18.56;69.36;100378.81;4975593;28;20129;-64
2021/07/20 01:09:41;;;;;;;26.25;16.88;;;;;;;18.55;69.39;100378.81;4973911;28;20046;-65
2021/07/20 01:12:26;;;;;;;22.45;15.55;;;;;;;18.55;69.67;100378.81;4974479;28;20545;-64
2021/07/20 01:15:12;;;;;;;19.15;14.55;;;;;;;18.53;69.66;100376.22;4974232;28;20115;-65
2021/07/20 01:18:05;;;;;;;20.75;15.48;;;;;;;18.51;69.14;100369.28;4974748;28;20418;-65
2021/07/20 01:20:55;;;;;;;22.23;15.60;;;;;;;18.51;69.67;100375.38;4973618;28;20049;-65
2021/07/20 01:23:47;;;;;;;23.55;14.90;;;;;;;18.49;69.46;100371.91;4973838;28;20093;-66
2021/07/20 01:26:37;;;;;;;22.60;16.55;;;;;;;18.50;69.43;100380.66;4973999;28;20079;-65
2021/07/20 01:29:31;;;;;;;23.13;15.63;;;;;;;18.49;69.38;100381.53;4974288;28;20086;-64
2021/07/20 01:32:21;;;;;;;23.33;15.55;;;;;;;18.46;69.36;100382.44;4974797;28;20118;-65
2021/07/20 01:35:06;;;;;;;20.20;16.00;;;;;;;18.47;69.60;100383.31;4973942;28;20057;-65
2021/07/20 01:37:53;;;;;;;22.42;15.38;;;;;;;18.46;69.23;100376.31;4974602;28;20097;-65
2021/07/20 01:40:39;;;;;;;21.42;14.93;;;;;;;18.45;69.28;100378.06;4973706;28;20057;-65
2021/07/20 01:43:33;;;;;;;20.90;14.30;;;;;;;18.44;69.41;100378.97;4974392;28;20097;-65
2021/07/20 01:46:19;;;;;;;25.08;15.07;;;;;;;18.44;69.46;100380.72;4973746;28;20081;-64
2021/07/20 01:49:14;;;;;;;23.48;15.50;;;;;;;18.42;69.57;100378.13;4973864;28;20042;-66
2021/07/20 01:52:01;;;;;;;20.60;14.85;;;;;;;18.39;69.45;100375.53;4973861;28;20513;-65
2021/07/20 01:54:48;;;;;;;21.05;14.75;;;;;;;18.39;69.56;100378.16;4974135;28;20117;-66
2021/07/20 01:57:33;;;;;;;18.05;13.70;;;;;;;18.37;69.55;100378.16;4975245;28;20057;-64
2021/07/20 02:00:18;;;;;;;19.48;14.38;;;;;;;18.37;69.37;100379.91;4973587;28;20049;-65
2021/07/20 02:09:24;;;;;;;21.90;15.20;;;;;;;18.34;69.53;100372.97;4974699;28;20038;-65
2021/07/20 02:12:14;;;;;;;21.73;14.95;;;;;;;18.34;69.42;100385.19;4974345;28;20049;-65
2021/07/20 02:15:10;;;;;;;17.95;13.57;;;;;;;18.33;69.40;100380.81;4973538;28;20580;-64
2021/07/20 02:17:55;;;;;;;21.02;14.20;;;;;;;18.32;69.53;100376.47;4974479;28;20057;-64
2021/07/20 02:20:44;;;;;;;19.30;12.95;;;;;;;18.32;69.55;100373.84;4973696;28;20515;-65
2021/07/20 02:23:32;;;;;;;18.58;13.38;;;;;;;18.31;69.41;100379.97;4974516;28;20521;-64
2021/07/20 02:26:25;;;;;;;19.77;13.88;;;;;;;18.30;69.47;100376.50;4973527;28;20561;-64
2021/07/20 02:29:11;;;;;;;19.40;13.30;;;;;;;18.29;69.38;100371.28;4974348;28;20070;-65
2021/07/20 02:32:01;;;;;;;17.45;13.45;;;;;;;18.28;69.42;100369.53;4974867;28;20049;-65
2021/07/20 02:34:53;;;;;;;18.35;12.60;;;;;;;18.26;69.46;100365.16;4977632;28;20109;-64
2021/07/20 02:37:47;;;;;;;20.20;13.85;;;;;;;18.24;69.32;100372.19;4977720;28;20097;-65
2021/07/20 02:40:37;;;;;;;18.02;12.70;;;;;;;18.23;69.48;100369.56;4978049;28;20101;-64
2021/07/20 02:43:29;;;;;;;18.63;13.23;;;;;;;18.22;69.33;100368.69;4977335;28;20077;-64
2021/07/20 02:46:22;;;;;;;19.63;13.15;;;;;;;18.21;69.43;100366.97;4977772;28;20564;-65
2021/07/20 02:49:14;;;;;;;18.98;14.07;;;;;;;18.20;69.60;100367.00;4977514;28;20093;-64
2021/07/20 02:52:06;;;;;;;18.67;12.55;;;;;;;18.18;69.48;100367.00;4977649;28;20181;-65
2021/07/20 02:54:51;;;;;;;17.23;13.07;;;;;;;18.16;69.34;100362.66;4976544;28;20050;-64
2021/07/20 02:57:40;;;;;;;;;;;;;;;18.10;69.43;100364.44;4977410;28;20058;-65
2021/07/20 03:00:28;;;;;;;19.00;13.05;;;;;;;18.11;69.14;100370.56;4976557;28;19960;-64
2021/07/20 03:03:14;;;;;;;20.48;12.98;;;;;;;18.10;69.47;100360.97;4976878;28;20093;-66
2021/07/20 03:06:04;;;;;;;18.40;13.18;;;;;;;18.09;69.47;100364.47;4977844;28;20121;-64
2021/07/20 03:08:55;;;;;;;25.73;12.93;;;;;;;18.07;69.38;100361.00;4976052;28;20050;-65
2021/07/20 03:11:43;;;;;;;16.05;12.35;;;;;;;18.06;69.38;100360.09;4976647;28;20050;-65
2021/07/20 03:14:31;;;;;;;18.67;13.00;;;;;;;18.05;69.25;100358.41;4976425;28;20070;-65
2021/07/20 03:17:17;;;;;;;16.88;12.07;;;;;;;18.05;69.33;100352.25;4976150;28;20108;-65
2021/07/20 03:20:06;;;;;;;17.60;12.68;;;;;;;18.04;69.37;100356.66;4976282;28;20053;-64
2021/07/20 03:22:56;;;;;;;16.48;12.50;;;;;;;18.03;69.37;100369.75;4977556;28;20138;-64
2021/07/20 03:25:43;;;;;;;19.25;13.00;;;;;;;18.03;69.41;100364.50;4976292;28;20410;-66
2021/07/20 03:28:28;;;;;;;17.38;12.23;;;;;;;18.02;69.33;100371.53;4976270;28;20053;-66
2021/07/20 03:31:18;;;;;;;22.55;12.73;;;;;;;18.01;69.25;100366.28;4976528;28;20085;-64
2021/07/20 03:34:06;;;;;;;16.77;12.40;;;;;;;17.99;69.16;100370.66;4976298;28;20062;-64
2021/07/20 03:36:53;;;;;;;17.65;12.73;;;;;;;17.98;69.14;100366.34;4976008;28;20418;-64
2021/07/20 03:39:39;;;;;;;17.75;12.07;;;;;;;17.96;69.26;100369.81;4977089;28;20069;-65
2021/07/20 03:42:25;;;;;;;19.38;12.70;;;;;;;17.95;69.09;100368.06;4976205;28;20101;-65
2021/07/20 03:45:13;;;;;;;19.45;12.85;;;;;;;17.94;69.35;100358.47;4976181;28;20419;-64
2021/07/20 03:48:02;;;;;;;20.02;13.35;;;;;;;17.93;69.29;100363.69;4976822;28;20065;-64
2021/07/20 03:50:49;;;;;;;19.40;12.93;;;;;;;17.92;69.27;100356.72;4976055;28;20101;-65
2021/07/20 03:53:45;;;;;;;18.23;12.73;;;;;;;17.91;69.13;100360.22;4976453;28;20097;-65
2021/07/20 03:56:33;;;;;;;20.80;12.60;;;;;;;17.90;69.33;100355.88;4976948;28;20049;-64
2021/07/20 03:59:27;;;;;;;17.95;12.05;;;;;;;17.89;69.21;100355.00;4976659;28;20414;-66
2021/07/20 04:02:13;;;;;;;16.63;11.82;;;;;;;17.87;69.22;100351.53;4976275;28;20062;-65
2021/07/20 04:04:59;;;;;;;19.20;12.82;;;;;;;17.87;69.42;100355.91;4975591;28;20090;-64
2021/07/20 04:07:54;;;;;;;17.77;12.07;;;;;;;17.84;69.09;100348.06;4975460;28;20399;-64
2021/07/20 04:10:39;;;;;;;19.60;13.73;;;;;;;17.86;68.85;100352.41;4976115;28;20066;-64
2021/07/20 04:13:25;;;;;;;17.02;12.80;;;;;;;17.84;69.18;100356.78;4976247;28;20049;-65
2021/07/20 04:16:16;;;;;;;16.83;11.93;;;;;;;17.84;69.06;100359.41;4975322;28;20049;-64
2021/07/20 04:19:08;;;;;;;17.48;12.00;;;;;;;17.83;69.26;100362.06;4976173;28;20465;-65
2021/07/20 04:22:01;;;;;;;18.17;13.27;;;;;;;17.82;68.87;100366.44;4976563;28;20105;-64
2021/07/20 04:24:51;;;;;;;17.05;13.00;;;;;;;17.80;69.18;100362.97;4975750;28;20580;-65
2021/07/20 04:27:38;;;;;;;16.75;12.20;;;;;;;17.80;69.12;100366.44;4975482;28;20077;-64
2021/07/20 04:30:22;;;;;;;17.92;12.57;;;;;;;17.78;69.26;100365.56;4974882;28;20097;-65
2021/07/20 04:33:06;;;;;;;17.08;12.23;;;;;;;17.78;69.44;100364.72;4976378;28;20046;-65
2021/07/20 04:35:56;;;;;;;;;;;;;;;17.73;69.14;100356.91;4976038;28;20093;-64
2021/07/20 04:38:42;;;;;;;24.05;12.60;;;;;;;17.74;69.22;100353.41;4975906;28;19921;-65
2021/07/20 04:41:27;;;;;;;19.10;12.43;;;;;;;17.73;68.96;100356.00;4975398;28;20123;-65
2021/07/20 04:44:11;;;;;;;21.67;13.63;;;;;;;17.73;68.93;100356.00;4976043;28;20638;-64
2021/07/20 04:46:58;;;;;;;18.98;12.32;;;;;;;17.71;69.23;100357.78;4975395;28;20061;-65
2021/07/20 04:49:42;;;;;;;20.10;12.40;;;;;;;17.70;69.10;100359.53;4975623;28;20541;-64
2021/07/20 04:52:27;;;;;;;17.67;13.15;;;;;;;17.70;69.14;100359.53;4976030;28;20061;-65
2021/07/20 04:55:15;;;;;;;20.30;13.95;;;;;;;17.70;69.30;100362.16;4974731;28;20093;-65
2021/07/20 04:58:02;;;;;;;17.20;12.15;;;;;;;17.70;69.33;100359.53;4974538;28;20105;-64
2021/07/20 05:00:54;;;;;;;19.00;13.20;;;;;;;17.69;69.30;100362.16;4974458;28;20561;-64
2021/07/20 05:03:40;;;;;;;16.95;11.40;;;;;;;17.71;68.73;100365.63;4974460;28;20541;-67
2021/07/20 05:06:29;;;;;;;25.92;12.18;;;;;;;17.70;69.26;100354.31;4975349;28;20054;-65
2021/07/20 05:09:14;;;;;;;18.48;11.57;;;;;;;17.69;69.20;100362.16;4975388;28;20085;-64
2021/07/20 05:12:08;;;;;;;23.23;12.05;;;;;;;17.70;69.07;100359.53;4975195;28;20540;-65
2021/07/20 05:14:53;;;;;;;18.23;12.48;;;;;;;17.70;69.17;100362.16;4975474;28;20524;-66
2021/07/20 05:17:39;;;;;;;20.42;12.23;;;;;;;17.71;69.26;100363.03;4975242;28;20134;-64
2021/07/20 05:20:26;;;;;;;21.77;11.88;;;;;;;17.70;69.15;100375.28;4974065;28;20125;-66
2021/07/20 05:23:19;;;;;;;20.08;12.88;;;;;;;17.70;69.13;100377.00;4974511;28;20082;-65
2021/07/20 05:26:06;;;;;;;18.55;12.25;;;;;;;17.71;69.21;100379.63;4975342;28;20162;-65
2021/07/20 05:28:53;;;;;;;21.38;11.65;;;;;;;17.71;69.07;100382.25;4974564;28;20073;-64
2021/07/20 05:31:46;;;;;;;19.52;12.75;;;;;;;17.70;69.09;100382.25;4975001;28;20418;-65
2021/07/20 05:34:36;;;;;;;18.80;12.40;;;;;;;17.70;69.19;100377.88;4975273;28;20052;-64
2021/07/20 05:37:28;;;;;;;17.33;12.10;;;;;;;17.71;69.29;100377.00;4974206;28;20113;-65
2021/07/20 05:40:27;;;;;;;19.95;12.77;;;;;;;17.72;69.15;100375.25;4974259;28;20097;-65
2021/07/20 05:43:12;;;;;;;18.55;12.05;;;;;;;17.74;69.24;100378.72;4974157;28;20066;-65
2021/07/20 05:46:03;;;;;;;20.25;12.77;;;;;;;17.73;69.14;100383.13;4973727;28;20046;-65
2021/07/20 05:48:56;;;;;;;21.05;12.10;;;;;;;17.75;69.08;100394.44;4973349;28;20101;-65
2021/07/20 05:51:40;;;;;;;19.00;11.82;;;;;;;17.77;69.13;100402.31;4974080;28;20057;-65
2021/07/20 05:54:25;;;;;;;16.35;12.13;;;;;;;17.77;69.19;100399.69;4974920;28;20069;-65
2021/07/20 05:57:13;;;;;;;17.90;12.70;;;;;;;17.76;69.24;100406.66;4973617;28;20045;-65
2021/07/20 05:59:57;;;;;;;23.13;13.25;;;;;;;17.77;69.17;100402.31;4973725;28;20097;-66
2021/07/20 06:02:42;;;;;;;19.67;14.48;;;;;;;17.77;69.17;100404.94;4973644;28;20066;-65
2021/07/20 06:05:29;;;;;;;17.73;12.63;;;;;;;17.78;69.15;100410.13;4974945;28;20050;-66
2021/07/20 06:08:19;;;;;;;20.75;14.10;;;;;;;17.78;69.29;100406.66;4976057;28;20050;-65
2021/07/20 06:11:04;;;;;;;21.90;13.55;;;;;;;17.78;69.01;100412.75;4977631;28;20050;-66
2021/07/20 06:14:00;;;;;;;22.77;14.30;;;;;;;17.78;69.20;100417.16;4977830;28;20508;-66
2021/07/20 06:16:47;;;;;;;20.67;14.60;;;;;;;17.78;69.65;100417.16;4978860;28;20150;-65
2021/07/20 06:19:38;;;;;;;22.13;14.88;;;;;;;17.78;69.18;100418.00;4978827;28;20054;-64
2021/07/20 06:22:36;;;;;;;18.58;13.77;;;;;;;17.78;69.21;100420.63;4977447;28;20049;-64
2021/07/20 06:25:23;;;;;;;24.25;14.25;;;;;;;17.79;69.32;100417.13;4976824;28;20045;-64
2021/07/20 06:28:10;;;;;;;25.70;13.93;;;;;;;17.80;69.20;100418.00;4978328;28;20050;-65
2021/07/20 06:31:03;;;;;;;21.23;14.75;;;;;;;17.80;69.19;100421.47;4978246;28;20049;-66
2021/07/20 06:33:48;;;;;;;26.15;16.45;;;;;;;17.83;69.38;100417.09;4977697;28;20069;-65
2021/07/20 06:36:34;;;;;;;21.13;14.93;;;;;;;17.83;69.18;100420.59;4977520;28;20049;-66
2021/07/20 06:39:21;;;;;;;21.92;15.38;;;;;;;17.85;69.15;100417.97;4977341;28;20054;-64
2021/07/20 06:42:06;;;;;;;24.33;15.77;;;;;;;17.87;69.07;100410.97;4977564;28;20060;-64
2021/07/20 06:44:50;;;;;;;22.10;13.65;;;;;;;17.88;69.30;100417.94;4977178;28;20426;-65
2021/07/20 06:47:41;;;;;;;25.35;15.48;;;;;;;17.89;69.38;100414.44;4976916;28;20112;-65
2021/07/20 06:50:25;;;;;;;21.88;14.60;;;;;;;17.90;69.24;100419.66;4977455;28;20162;-66
2021/07/20 06:53:17;;;;;;;21.02;14.80;;;;;;;17.91;69.32;100425.75;4977221;28;20069;-65
2021/07/20 06:56:16;;;;;;;20.48;13.98;;;;;;;17.91;69.21;100424.03;4976846;28;20491;-65
2021/07/20 06:59:02;;;;;;;19.55;14.23;;;;;;;17.94;69.15;100433.59;4978571;28;20053;-64
2021/07/20 07:01:46;;;;;;;22.33;13.45;;;;;;;17.96;69.37;100437.97;4976654;28;20584;-64
2021/07/20 07:04:46;;;;;;;20.88;13.48;;;;;;;17.96;69.15;100430.13;4976621;28;20418;-66
2021/07/20 07:07:37;;;;;;;22.35;13.65;;;;;;;17.98;69.21;100435.38;4977537;28;20101;-64
2021/07/20 07:10:33;;;;;;;21.65;14.18;;;;;;;17.99;68.87;100436.22;4977065;28;20085;-65
2021/07/20 07:13:24;;;;;;;21.08;13.13;;;;;;;18.00;69.20;100438.84;4977761;28;20557;-65
2021/07/20 07:16:22;;;;;;;19.20;13.32;;;;;;;18.02;69.27;100449.31;4977539;28;20131;-65
2021/07/20 07:19:14;;;;;;;24.92;14.88;;;;;;;18.02;69.33;100446.69;4976977;28;20062;-65
2021/07/20 07:22:03;;;;;;;22.20;14.90;;;;;;;18.04;69.36;100456.31;4976850;28;20054;-66
2021/07/20 07:24:48;;;;;;;24.83;14.93;;;;;;;18.04;69.75;100452.78;4977072;28;20549;-65
2021/07/20 07:27:36;;;;;;;20.55;13.45;;;;;;;18.05;69.43;100449.28;4977401;28;20073;-66
2021/07/20 07:30:27;;;;;;;22.05;14.18;;;;;;;18.05;69.21;100455.44;4977473;28;20415;-64
2021/07/20 07:33:12;;;;;;;21.17;13.25;;;;;;;18.07;69.28;100455.41;4976971;28;20057;-64
2021/07/20 07:36:04;;;;;;;19.58;13.25;;;;;;;18.07;69.40;100452.78;4975740;28;20069;-67
2021/07/20 07:38:51;;;;;;;18.73;12.75;;;;;;;18.07;69.24;100455.41;4976889;28;20074;-65
2021/07/20 07:41:42;;;;;;;20.98;14.30;;;;;;;18.08;69.36;100465.88;4976101;28;20109;-65
2021/07/20 07:44:28;;;;;;;22.08;13.45;;;;;;;18.09;69.39;100458.88;4977249;28;20423;-64
2021/07/20 07:47:13;;;;;;;22.52;14.13;;;;;;;18.10;69.31;100461.47;4977141;28;20050;-64
2021/07/20 07:50:07;;;;;;;20.15;12.73;;;;;;;18.11;69.35;100465.00;4975794;28;20065;-65
2021/07/20 07:53:05;;;;;;;22.95;13.32;;;;;;;18.11;69.32;100451.88;4976109;28;20442;-65
2021/07/20 07:56:01;;;;;;;17.95;12.27;;;;;;;18.11;69.32;100462.38;4976050;28;20522;-66
2021/07/20 07:58:51;;;;;;;20.38;12.57;;;;;;;18.11;69.34;100457.97;4976150;28;20113;-64
2021/07/20 08:01:48;;;;;;;16.52;11.85;;;;;;;18.13;69.22;100460.59;4975685;28;20070;-64
2021/07/20 08:04:43;;;;;;;18.45;12.27;;;;;;;18.14;69.39;100456.22;4975863;28;20049;-65
2021/07/20 08:07:29;;;;;;;19.60;13.15;;;;;;;18.13;69.42;100452.75;4976442;28;20050;-64
2021/07/20 08:10:16;;;;;;;21.75;13.77;;;;;;;18.16;69.32;100463.19;4975580;28;20462;-66
2021/07/20 08:13:13;;;;;;;20.33;12.82;;;;;;;18.16;69.25;100462.31;4975923;28;20081;-65
2021/07/20 08:16:06;;;;;;;19.85;12.85;;;;;;;18.16;69.23;100457.94;4976186;28;20109;-65
2021/07/20 08:18:53;;;;;;;17.80;12.45;;;;;;;18.16;69.17;100457.06;4976247;28;20150;-65
2021/07/20 08:21:42;;;;;;;18.63;11.95;;;;;;;18.17;69.20;100453.56;4975380;28;20054;-67
2021/07/20 08:24:35;;;;;;;16.45;12.23;;;;;;;18.18;69.23;100458.78;4976008;28;20122;-64
2021/07/20 08:27:31;;;;;;;19.00;12.32;;;;;;;18.19;69.12;100455.28;4976223;28;20513;-66
2021/07/20 08:30:20;;;;;;;20.65;11.93;;;;;;;18.20;69.17;100464.91;4975002;28;20049;-66
2021/07/20 08:33:11;;;;;;;17.83;12.10;;;;;;;18.20;69.17;100458.78;4975317;28;20418;-66
2021/07/20 08:36:04;;;;;;;19.83;13.18;;;;;;;18.20;69.00;100464.91;4974752;28;20066;-65
2021/07/20 08:38:58;;;;;;;19.50;11.60;;;;;;;18.22;69.19;100463.13;4974845;28;20124;-64
2021/07/20 08:42:03;;;;;;;15.25;11.60;;;;;;;18.23;69.43;100454.38;4975668;28;20151;-66
2021/07/20 08:45:19;;;;;;;17.45;11.82;;;;;;;18.26;69.12;100456.09;4974646;28;20105;-66
2021/07/20 08:48:10;;;;;;;18.58;11.60;;;;;;;18.24;69.11;100450.88;4960513;28;20073;-65
2021/07/20 08:51:05;;;;;;;17.35;11.85;;;;;;;18.26;69.39;100449.13;4975051;28;20094;-65
2021/07/20 08:54:33;;;;;;;21.10;13.10;;;;;;;18.25;69.31;100457.88;4974901;28;20089;-65
2021/07/20 08:57:26;;;;;;;16.73;12.88;;;;;;;18.25;69.20;100457.88;4948927;28;20409;-64
2021/07/20 09:00:13;;;;;;;18.25;11.60;;;;;;;18.27;69.23;100460.47;4974482;28;20101;-64
2021/07/20 09:03:39;;;;;;;18.77;12.82;;;;;;;18.28;69.21;100456.97;4974140;28;20572;-66
2021/07/20 09:06:37;;;;;;;19.25;11.38;;;;;;;18.29;69.27;100461.31;4974656;28;20073;-65
2021/07/20 09:09:30;;;;;;;19.25;12.52;;;;;;;18.33;68.99;100467.41;4975021;28;20466;-65
2021/07/20 09:12:27;;;;;;;18.13;12.80;;;;;;;18.35;69.08;100463.00;4974255;28;20112;-64
2021/07/20 09:15:20;;;;;;;20.15;12.43;;;;;;;18.37;68.98;100469.13;4974870;28;20138;-66
2021/07/20 09:18:23;;;;;;;18.30;12.23;;;;;;;18.38;69.34;100469.09;4975458;28;20074;-64
2021/07/20 09:21:19;;;;;;;19.70;13.25;;;;;;;18.40;69.19;100471.72;4974278;28;20054;-66
2021/07/20 09:24:32;;;;;;;18.00;11.85;;;;;;;18.41;68.92;100465.59;4973974;28;20070;-66
2021/07/20 09:27:30;;;;;;;20.45;14.27;;;;;;;18.41;69.19;100462.97;4973788;28;20046;-65
2021/07/20 09:30:24;;;;;;;19.17;12.30;;;;;;;18.43;68.95;100471.69;4975082;28;20078;-65
2021/07/20 09:33:08;;;;;;;21.20;13.10;;;;;;;18.46;69.20;100470.78;4974357;28;20549;-65
2021/07/20 09:36:02;;;;;;;22.63;13.30;;;;;;;18.47;69.10;100473.38;4975369;28;20045;-66
2021/07/20 09:38:58;;;;;;;16.02;12.25;;;;;;;18.49;69.15;100470.75;4974151;28;20105;-65
2021/07/20 09:41:52;;;;;;;20.13;12.57;;;;;;;18.49;68.91;100473.38;4972933;28;20094;-65
2021/07/20 09:45:22;;;;;;;17.65;12.25;;;;;;;18.49;69.15;100471.63;4974230;28;20065;-65
2021/07/20 09:48:33;;;;;;;18.08;12.40;;;;;;;18.50;68.72;100462.88;4964596;28;20415;-64
2021/07/20 09:51:36;;;;;;;16.38;12.00;;;;;;;18.53;69.02;100472.47;4973756;28;20049;-64
2021/07/20 09:54:58;;;;;;;17.05;12.43;;;;;;;18.55;68.72;100470.69;4974502;28;20046;-64
2021/07/20 09:57:58;;;;;;;17.98;12.55;;;;;;;18.54;68.69;100466.31;4973886;28;20115;-66
2021/07/20 10:00:51;;;;;;;17.10;11.77;;;;;;;18.56;68.95;100472.44;4973489;28;20057;-64
2021/07/20 10:03:53;;;;;;;20.40;12.70;;;;;;;18.56;68.79;100464.56;4973997;28;20529;-65
2021/07/20 10:07:13;;;;;;;17.77;12.85;;;;;;;18.59;68.93;100466.28;4973923;28;20105;-66
2021/07/20 10:10:08;;;;;;;17.75;12.27;;;;;;;18.62;68.86;100459.25;4972664;28;20586;-66
2021/07/20 10:13:20;;;;;;;15.50;10.88;;;;;;;18.64;68.75;100467.09;4973506;28;20046;-65
2021/07/20 10:16:30;;;;;;;17.70;12.07;;;;;;;18.65;68.76;100453.97;4974509;28;20101;-64
2021/07/20 10:19:45;;;;;;;18.15;12.25;;;;;;;18.66;68.96;100453.09;4967441;28;20574;-65
2021/07/20 10:22:46;;;;;;;15.95;10.60;;;;;;;18.67;68.92;100456.56;4974550;28;20057;-65
2021/07/20 10:25:46;;;;;;;16.40;10.63;;;;;;;18.69;68.91;100444.31;4973833;28;20085;-66
2021/07/20 10:28:44;;;;;;;14.98;10.27;;;;;;;18.69;68.85;100434.66;4973256;28;20470;-66
2021/07/20 10:32:03;;;;;;;20.80;11.93;;;;;;;18.70;68.70;100448.66;4973972;28;20065;-65
2021/07/20 10:34:58;;;;;;;16.10;11.27;;;;;;;18.72;68.70;100449.53;4974312;28;20139;-64
2021/07/20 10:37:53;;;;;;;17.90;10.82;;;;;;;18.73;68.81;100453.88;4973998;28;20077;-65
2021/07/20 10:40:46;;;;;;;19.75;12.63;;;;;;;18.74;68.72;100439.88;4974381;28;20069;-65
2021/07/20 10:43:53;;;;;;;14.52;10.32;;;;;;;18.76;68.77;100447.72;4974244;28;20049;-65
2021/07/20 10:46:41;;;;;;;19.17;12.23;;;;;;;18.77;68.80;100447.69;4973073;28;20150;-65
2021/07/20 10:49:50;;;;;;;17.13;11.73;;;;;;;18.78;68.77;100440.69;4973128;28;20049;-67
2021/07/20 10:53:19;;;;;;;16.05;10.95;;;;;;;18.79;68.66;100445.06;4973692;28;20078;-65
2021/07/20 10:56:39;;;;;;;17.92;11.13;;;;;;;18.79;68.58;100438.03;4972771;28;20109;-65
2021/07/20 10:59:51;;;;;;;18.35;11.88;;;;;;;18.82;68.52;100442.41;4976592;28;20054;-66
2021/07/20 11:02:56;;;;;;;19.98;12.32;;;;;;;18.83;68.67;100437.13;4976625;28;20109;-66
2021/07/20 11:05:48;;;;;;;19.10;11.75;;;;;;;18.85;68.65;100442.34;4976525;28;20045;-65
2021/07/20 11:08:44;;;;;;;20.95;12.02;;;;;;;18.86;68.35;100439.72;4976220;28;20077;-65
2021/07/20 11:11:34;;;;;;;17.50;10.93;;;;;;;18.87;68.37;100444.09;4977651;28;20101;-67
2021/07/20 11:14:26;;;;;;;18.15;10.77;;;;;;;18.88;68.41;100426.56;4976515;28;20081;-66
2021/07/20 11:17:13;;;;;;;17.63;10.82;;;;;;;18.89;68.37;100436.19;4976955;28;20093;-65
2021/07/20 11:20:02;;;;;;;15.05;11.32;;;;;;;18.91;68.45;100439.66;4976254;28;20049;-66
2021/07/20 11:22:53;;;;;;;17.27;10.88;;;;;;;18.92;68.46;100430.03;4977374;28;20550;-65
2021/07/20 11:25:41;;;;;;;15.43;11.25;;;;;;;18.93;68.48;100435.28;4977354;28;20532;-65
2021/07/20 11:28:28;;;;;;;18.75;10.90;;;;;;;18.94;68.35;100429.16;4975920;28;20050;-64
2021/07/20 11:31:21;;;;;;;13.80;10.73;;;;;;;18.95;68.40;100425.66;4976443;28;20045;-65
2021/07/20 11:34:10;;;;;;;18.45;12.25;;;;;;;18.96;68.32;100432.66;4977159;28;20082;-65
2021/07/20 11:37:00;;;;;;;14.23;11.30;;;;;;;18.97;68.18;100434.38;4976640;28;20572;-64
2021/07/20 11:40:10;;;;;;;19.85;11.93;;;;;;;18.97;68.37;100433.50;4976343;28;20046;-65
2021/07/20 11:43:14;;;;;;;17.73;12.32;;;;;;;18.99;68.20;100429.09;4977173;28;20177;-65
2021/07/20 11:46:15;;;;;;;15.00;11.77;;;;;;;19.00;68.27;100420.34;4976079;28;20045;-64
2021/07/20 11:49:18;;;;;;;17.77;12.00;;;;;;;19.01;68.22;100422.06;4976527;28;20053;-65
2021/07/20 11:52:14;;;;;;;17.23;11.55;;;;;;;19.01;68.27;100422.06;4976583;28;20101;-66
2021/07/20 11:55:07;;;;;;;17.17;11.80;;;;;;;19.02;68.43;100421.19;4975815;28;20115;-64
2021/07/20 11:58:20;;;;;;;16.50;11.38;;;;;;;19.04;68.20;100418.53;4975943;28;20446;-65
2021/07/20 12:01:12;;;;;;;15.73;11.70;;;;;;;19.04;68.21;100413.28;4976528;28;20049;-66
2021/07/20 12:04:21;;;;;;;18.20;11.93;;;;;;;19.03;68.31;100409.78;4975374;28;20053;-65
2021/07/20 12:07:30;;;;;;;21.92;12.50;;;;;;;19.05;68.15;100412.38;4976539;28;20122;-64
2021/07/20 12:10:31;;;;;;;18.67;12.55;;;;;;;19.04;68.04;100424.66;4976052;28;20049;-65
2021/07/20 12:13:28;;;;;;;17.60;12.48;;;;;;;19.06;68.10;100416.75;4975660;28;20458;-65
2021/07/20 12:16:25;;;;;;;20.20;12.68;;;;;;;19.06;68.16;100409.75;4976332;28;20422;-66
2021/07/20 12:19:33;;;;;;;18.20;11.85;;;;;;;19.07;67.96;100401.00;4976687;28;20093;-65
2021/07/20 12:22:18;;;;;;;18.90;12.65;;;;;;;19.08;68.08;100414.97;4975458;28;20590;-66
2021/07/20 12:25:11;;;;;;;18.63;12.25;;;;;;;19.08;68.10;100407.09;4975467;28;20048;-65
2021/07/20 12:28:02;;;;;;;23.15;12.70;;;;;;;19.22;68.04;100406.91;4975210;28;20062;-74
2021/07/20 12:31:02;;;;;;;19.08;13.23;;;;;;;19.31;67.63;100410.25;4974991;28;20121;-74
2021/07/20 12:33:47;;;;;;;19.27;13.40;;;;;;;19.41;67.82;100404.88;4975075;28;20057;-72
2021/07/20 12:36:34;;;;;;;19.38;12.65;;;;;;;19.47;67.65;100400.41;4975253;28;20517;-74
2021/07/20 12:39:30;;;;;;;18.63;12.68;;;;;;;19.52;67.33;100404.72;4976266;28;20062;-74
2021/07/20 12:42:18;;;;;;;17.25;11.95;;;;;;;19.52;67.09;100407.38;4975273;28;20073;-75
2021/07/20 12:45:02;;;;;;;17.63;13.20;;;;;;;19.51;67.26;100395.97;4974779;28;20098;-73
2021/07/20 12:47:49;;;;;;;18.13;13.48;;;;;;;19.52;67.07;100402.09;4975002;28;20057;-73
2021/07/20 12:50:39;;;;;;;18.60;14.10;;;;;;;19.54;67.40;100402.97;4975121;28;20129;-72
2021/07/20 12:53:28;;;;;;;20.13;13.00;;;;;;;19.54;67.19;100395.06;4974664;28;20533;-75
2021/07/20 12:56:22;;;;;;;17.80;13.13;;;;;;;19.51;66.78;100389.84;4975627;28;20054;-72
2021/07/20 12:59:14;;;;;;;22.45;14.23;;;;;;;19.51;67.05;100401.22;4974780;28;20473;-72
2021/07/20 13:02:07;;;;;;;17.60;12.85;;;;;;;19.55;66.95;100395.03;4975019;28;20104;-73
2021/07/20 13:04:59;;;;;;;20.42;13.38;;;;;;;19.60;67.04;100394.94;4974259;28;20078;-74
2021/07/20 13:07:56;;;;;;;19.35;13.60;;;;;;;19.65;67.18;100390.50;4975447;28;20042;-75
2021/07/20 13:10:44;;;;;;;25.77;14.13;;;;;;;19.69;66.75;100391.31;4974219;28;20123;-74